Time;durP1;ratioP1;P1;durP2;ratioP2;P2;SDS_P1;SDS_P2;PMS_P1;PMS_P2;Temp;Humidity;BMP_temperature;BMP_pressure;BME280_temperature;BME280_humidity;BME280_pressure;Samples;Min_cycle;Max_cycle;Signal;HPM_P1;HPM_P2
2021/12/30 00:01:01;;;;;;;0.20;0.20;;;10.40;99.90;;;;;;2114313;28;20190;-68
2021/12/30 00:02:02;;;;;;;0.30;0.30;;;10.40;99.90;;;;;;2114029;28;21144;-68
2021/12/30 00:03:04;;;;;;;0.30;0.30;;;10.40;99.90;;;;;;2109707;28;20186;-67
2021/12/30 00:04:05;;;;;;;0.20;0.20;;;10.40;99.90;;;;;;2113447;28;20819;-69
2021/12/30 00:05:08;;;;;;;0.40;0.35;;;10.40;99.90;;;;;;2117093;27;20174;-68
2021/12/30 00:06:09;;;;;;;0.30;0.30;;;10.40;99.90;;;;;;2113771;28;20551;-68
2021/12/30 00:07:10;;;;;;;0.30;0.30;;;10.40;99.90;;;;;;2114146;28;20186;-66
2021/12/30 00:08:11;;;;;;;0.23;0.20;;;10.40;99.90;;;;;;2115406;28;20198;-67
2021/12/30 00:09:14;;;;;;;0.30;0.30;;;10.30;99.90;;;;;;2115403;28;20179;-67
2021/12/30 00:10:15;;;;;;;0.32;0.30;;;10.30;99.90;;;;;;2117997;28;20166;-67
2021/12/30 00:11:16;;;;;;;0.97;0.40;;;10.30;99.90;;;;;;2120830;28;20234;-67
2021/12/30 00:12:16;;;;;;;0.40;0.40;;;10.30;99.90;;;;;;2122453;27;20177;-66
2021/12/30 00:13:18;;;;;;;0.73;0.43;;;10.30;99.90;;;;;;2115780;28;20630;-67
2021/12/30 00:14:18;;;;;;;0.45;0.40;;;10.30;99.90;;;;;;2113657;28;20170;-67
2021/12/30 00:15:20;;;;;;;0.30;0.30;;;10.30;99.90;;;;;;2113956;28;20174;-67
2021/12/30 00:16:21;;;;;;;0.30;0.30;;;10.30;99.90;;;;;;2114046;28;20214;-67
2021/12/30 00:17:22;;;;;;;1.00;0.33;;;10.30;99.90;;;;;;2114058;28;20170;-67
2021/12/30 00:18:24;;;;;;;0.40;0.40;;;10.20;99.90;;;;;;2113963;28;20603;-67
2021/12/30 00:19:25;;;;;;;0.50;0.50;;;10.20;99.90;;;;;;2113283;28;20220;-67
2021/12/30 00:20:26;;;;;;;1.03;0.40;;;10.20;99.90;;;;;;2116616;28;20833;-66
2021/12/30 00:21:27;;;;;;;0.55;0.38;;;10.20;99.90;;;;;;2121966;27;20173;-66
2021/12/30 00:22:28;;;;;;;0.40;0.40;;;10.20;99.90;;;;;;2111406;28;20633;-67
2021/12/30 00:23:29;;;;;;;2.30;0.45;;;10.20;99.90;;;;;;2115115;28;20171;-67
2021/12/30 00:24:30;;;;;;;1.93;0.50;;;10.20;99.90;;;;;;2118964;27;20268;-67
2021/12/30 00:25:38;;;;;;;0.30;0.30;;;10.30;99.90;;;;;;2115360;28;20171;-65
2021/12/30 00:26:38;;;;;;;0.47;0.45;;;10.20;99.90;;;;;;2114796;28;20206;-67
2021/12/30 00:27:39;;;;;;;0.83;0.50;;;10.20;99.90;;;;;;2114744;28;20182;-66
2021/12/30 00:28:40;;;;;;;0.40;0.40;;;10.20;99.90;;;;;;2119235;27;20212;-67
2021/12/30 00:29:41;;;;;;;0.33;0.33;;;10.20;99.90;;;;;;2115815;28;20178;-66
2021/12/30 00:30:43;;;;;;;0.40;0.40;;;10.10;99.90;;;;;;2115328;27;20206;-67
2021/12/30 00:31:44;;;;;;;0.40;0.40;;;10.10;99.90;;;;;;2115420;27;20639;-68
2021/12/30 00:32:45;;;;;;;0.27;0.27;;;10.10;99.90;;;;;;2114674;27;20280;-67
2021/12/30 00:33:46;;;;;;;0.30;0.30;;;10.10;99.90;;;;;;2114735;28;20220;-66
2021/12/30 00:34:47;;;;;;;0.40;0.40;;;10.10;99.90;;;;;;2120999;27;20415;-69
2021/12/30 00:35:49;;;;;;;0.68;0.45;;;10.10;99.90;;;;;;2123299;27;20195;-67
2021/12/30 00:36:50;;;;;;;0.40;0.40;;;10.10;99.90;;;;;;2116603;27;20198;-71
2021/12/30 00:37:50;;;;;;;0.63;0.43;;;10.10;99.90;;;;;;2115614;28;20894;-70
2021/12/30 00:38:51;;;;;;;0.33;0.30;;;10.10;99.90;;;;;;2114708;28;20311;-67
2021/12/30 00:39:52;;;;;;;0.30;0.30;;;10.10;99.90;;;;;;2114859;28;20613;-68
2021/12/30 00:40:53;;;;;;;0.60;0.37;;;10.10;99.90;;;;;;2119280;27;20206;-66
2021/12/30 00:41:54;;;;;;;0.30;0.30;;;10.10;99.90;;;;;;2115179;28;20178;-68
2021/12/30 00:42:55;;;;;;;0.30;0.30;;;10.10;99.90;;;;;;2114921;28;20524;-67
2021/12/30 00:43:55;;;;;;;0.80;0.40;;;10.20;99.90;;;;;;2114877;28;20193;-66
2021/12/30 00:44:56;;;;;;;0.40;0.40;;;10.20;99.90;;;;;;2115236;28;20181;-67
2021/12/30 00:45:57;;;;;;;0.30;0.30;;;10.20;99.90;;;;;;2115470;28;20193;-69
2021/12/30 00:46:59;;;;;;;0.40;0.40;;;10.10;99.90;;;;;;2123413;27;20227;-67
2021/12/30 00:48:00;;;;;;;0.50;0.50;;;10.10;99.90;;;;;;2114557;28;20189;-67
2021/12/30 00:49:00;;;;;;;1.35;0.43;;;10.10;99.90;;;;;;2122856;27;20196;-68
2021/12/30 00:50:01;;;;;;;0.40;0.37;;;10.10;99.90;;;;;;2123704;27;20641;-68
2021/12/30 00:51:03;;;;;;;0.32;0.32;;;10.10;99.90;;;;;;2111530;28;20166;-67
2021/12/30 00:52:04;;;;;;;0.60;0.50;;;10.10;99.90;;;;;;2119069;27;20184;-68
2021/12/30 00:53:07;;;;;;;0.40;0.40;;;10.10;99.90;;;;;;2106357;28;20262;-68
2021/12/30 00:54:07;;;;;;;0.60;0.30;;;10.10;99.90;;;;;;2115278;27;20204;-67
2021/12/30 00:55:09;;;;;;;0.30;0.30;;;10.10;99.90;;;;;;2118154;27;20641;-69
2021/12/30 00:56:09;;;;;;;0.55;0.25;;;10.10;99.90;;;;;;2115224;28;20185;-69
2021/12/30 00:57:10;;;;;;;0.40;0.40;;;10.10;99.90;;;;;;2114458;28;20181;-67
2021/12/30 00:58:12;;;;;;;0.50;0.47;;;10.10;99.90;;;;;;2115878;27;20661;-69
2021/12/30 00:59:13;;;;;;;0.70;0.40;;;10.10;99.90;;;;;;2123075;27;20209;-69
2021/12/30 01:00:17;;;;;;;0.30;0.30;;;10.10;99.90;;;;;;2121347;27;20268;-69
2021/12/30 01:01:18;;;;;;;0.30;0.30;;;10.10;99.90;;;;;;2114624;28;20281;-69
2021/12/30 01:02:19;;;;;;;1.33;0.40;;;10.10;99.90;;;;;;2115377;28;20209;-76
2021/12/30 01:03:20;;;;;;;0.30;0.30;;;10.10;99.90;;;;;;2106568;28;20186;-77
2021/12/30 01:04:21;;;;;;;1.65;0.30;;;10.10;99.90;;;;;;2115432;28;20182;-77
2021/12/30 01:05:23;;;;;;;0.55;0.40;;;10.00;99.90;;;;;;2115716;28;20255;-68
2021/12/30 01:06:24;;;;;;;0.63;0.40;;;10.10;99.90;;;;;;2115184;28;20167;-69
2021/12/30 01:07:25;;;;;;;0.50;0.30;;;10.10;99.90;;;;;;2114616;28;20202;-68
2021/12/30 01:08:26;;;;;;;1.00;0.50;;;10.10;99.90;;;;;;2114500;28;20175;-69
2021/12/30 01:09:26;;;;;;;0.40;0.40;;;10.10;99.90;;;;;;2114768;28;20223;-69
2021/12/30 01:10:27;;;;;;;1.33;0.40;;;10.00;99.90;;;;;;2114553;28;20190;-69
2021/12/30 01:11:28;;;;;;;0.30;0.30;;;10.10;99.90;;;;;;2115012;28;20684;-68
2021/12/30 01:12:29;;;;;;;0.50;0.40;;;10.10;99.90;;;;;;2114916;28;20171;-69
2021/12/30 01:13:31;;;;;;;1.97;0.30;;;10.10;99.90;;;;;;2106409;28;20233;-69
2021/12/30 01:14:35;;;;;;;0.40;0.40;;;10.10;99.90;;;;;;2115145;28;20522;-68
2021/12/30 01:17:10;;;;;;;0.45;0.45;;;10.00;99.90;;;;;;2114915;28;20185;-69
2021/12/30 01:19:44;;;;;;;0.30;0.30;;;10.10;99.90;;;;;;2104190;28;20207;-69
2021/12/30 01:20:45;;;;;;;1.50;0.32;;;10.10;99.90;;;;;;2114782;28;20574;-69
2021/12/30 01:21:46;;;;;;;2.58;0.52;;;10.00;99.90;;;;;;2115123;28;20713;-69
2021/12/30 01:22:49;;;;;;;1.20;0.45;;;10.00;99.90;;;;;;2115393;28;20186;-69
2021/12/30 01:23:51;;;;;;;0.60;0.40;;;10.00;99.90;;;;;;2115283;28;20185;-68
2021/12/30 01:24:52;;;;;;;0.50;0.40;;;10.00;99.90;;;;;;2115246;28;20183;-69
2021/12/30 01:25:55;;;;;;;1.42;0.52;;;10.00;99.90;;;;;;2115442;28;20162;-69
2021/12/30 01:26:57;;;;;;;1.30;0.40;;;10.00;99.90;;;;;;2115426;27;20277;-69
2021/12/30 01:27:58;;;;;;;0.47;0.40;;;10.10;99.90;;;;;;2115182;28;20186;-69
2021/12/30 01:28:59;;;;;;;0.30;0.30;;;10.10;99.90;;;;;;2115374;28;20250;-69
2021/12/30 01:30:00;;;;;;;1.17;0.40;;;10.10;99.90;;;;;;2114703;28;20190;-69
2021/12/30 01:31:02;;;;;;;0.83;0.50;;;10.00;99.90;;;;;;2114768;28;20167;-68
2021/12/30 01:32:04;;;;;;;0.30;0.30;;;10.00;99.90;;;;;;2115234;28;20175;-69
2021/12/30 01:33:04;;;;;;;0.70;0.70;;;10.00;99.90;;;;;;2115007;28;20177;-68
2021/12/30 01:34:05;;;;;;;0.90;0.50;;;10.10;99.90;;;;;;2114895;28;20194;-69
2021/12/30 01:35:10;;;;;;;0.93;0.40;;;10.00;99.90;;;;;;2114706;28;20175;-69
2021/12/30 01:36:11;;;;;;;1.27;0.40;;;10.00;99.90;;;;;;2114689;28;20674;-69
2021/12/30 01:37:13;;;;;;;0.40;0.40;;;10.00;99.90;;;;;;2114581;28;20250;-69
2021/12/30 01:38:16;;;;;;;0.45;0.40;;;10.00;99.90;;;;;;2115076;28;20190;-69
2021/12/30 01:39:19;;;;;;;0.57;0.40;;;10.00;99.90;;;;;;2115185;28;20608;-69
2021/12/30 01:40:21;;;;;;;0.45;0.43;;;10.10;99.90;;;;;;2114520;28;20726;-68
2021/12/30 01:41:22;;;;;;;1.23;0.38;;;10.10;99.90;;;;;;2114755;28;20174;-69
2021/12/30 01:42:23;;;;;;;0.40;0.40;;;10.10;99.90;;;;;;2115239;28;20174;-68
2021/12/30 01:43:24;;;;;;;1.42;0.60;;;10.10;99.90;;;;;;2115268;28;20174;-69
2021/12/30 01:44:28;;;;;;;0.40;0.40;;;10.20;99.90;;;;;;2115206;28;20173;-69
2021/12/30 01:45:28;;;;;;;0.30;0.30;;;10.20;99.90;;;;;;2115140;28;20194;-68
2021/12/30 01:46:42;;;;;;;0.40;0.40;;;10.20;99.90;;;;;;2115226;27;20184;-68
2021/12/30 01:47:50;;;;;;;1.35;0.50;;;10.10;99.90;;;;;;2115254;28;20185;-68
2021/12/30 01:48:50;;;;;;;0.40;0.40;;;10.10;99.90;;;;;;2114507;28;20637;-69
2021/12/30 01:49:53;;;;;;;0.40;0.40;;;10.10;99.90;;;;;;2107043;28;20290;-68
2021/12/30 01:50:54;;;;;;;0.40;0.40;;;10.10;99.90;;;;;;2114474;28;20213;-68
2021/12/30 01:51:56;;;;;;;0.40;0.40;;;10.10;99.90;;;;;;2115337;28;20651;-69
2021/12/30 01:52:58;;;;;;;0.90;0.50;;;10.10;99.90;;;;;;2115090;28;20812;-69
2021/12/30 01:53:59;;;;;;;0.68;0.45;;;10.10;99.90;;;;;;2115170;28;20726;-68
2021/12/30 01:55:01;;;;;;;0.60;0.57;;;10.10;99.90;;;;;;2114978;28;20173;-68
2021/12/30 01:56:03;;;;;;;0.38;0.35;;;10.10;99.90;;;;;;2115286;28;20625;-68
2021/12/30 01:57:06;;;;;;;0.30;0.30;;;10.10;99.90;;;;;;2114427;28;20178;-69
2021/12/30 01:58:07;;;;;;;0.40;0.40;;;10.10;99.90;;;;;;2106205;28;20702;-69
2021/12/30 01:59:09;;;;;;;0.70;0.52;;;10.10;99.90;;;;;;2114215;28;20202;-69
2021/12/30 02:00:13;;;;;;;0.52;0.50;;;10.10;99.90;;;;;;2114943;28;20175;-68
2021/12/30 02:01:14;;;;;;;0.38;0.30;;;10.10;99.90;;;;;;2114888;28;20215;-68
2021/12/30 02:02:14;;;;;;;1.10;0.50;;;10.10;99.90;;;;;;2114866;28;20218;-69
2021/12/30 02:03:18;;;;;;;0.90;0.50;;;10.00;99.90;;;;;;2114881;28;20179;-68
2021/12/30 02:04:19;;;;;;;0.70;0.50;;;10.00;99.90;;;;;;2114356;28;20217;-68
2021/12/30 02:05:21;;;;;;;0.40;0.40;;;10.00;99.90;;;;;;2114073;28;20189;-68
2021/12/30 02:06:22;;;;;;;0.40;0.40;;;10.00;99.90;;;;;;2114899;28;20166;-68
2021/12/30 02:07:22;;;;;;;0.30;0.30;;;9.90;99.90;;;;;;2114851;28;20177;-68
2021/12/30 02:08:23;;;;;;;0.40;0.40;;;9.90;99.90;;;;;;2114922;28;20542;-69
2021/12/30 02:09:25;;;;;;;0.82;0.32;;;9.90;99.90;;;;;;2114875;28;20170;-68
2021/12/30 02:10:26;;;;;;;0.57;0.30;;;9.90;99.90;;;;;;2114742;28;20736;-68
2021/12/30 02:11:27;;;;;;;0.40;0.40;;;9.90;99.90;;;;;;2114282;28;20171;-68
2021/12/30 02:12:32;;;;;;;0.65;0.50;;;10.00;99.90;;;;;;2114329;28;20170;-69
2021/12/30 02:13:33;;;;;;;0.65;0.50;;;10.00;99.90;;;;;;2114276;28;20191;-69
2021/12/30 02:14:35;;;;;;;0.40;0.40;;;10.00;99.90;;;;;;2114160;28;20169;-69
2021/12/30 02:15:36;;;;;;;0.32;0.30;;;10.00;99.90;;;;;;2114187;28;20166;-68
2021/12/30 02:16:37;;;;;;;0.35;0.35;;;9.90;99.90;;;;;;2114244;28;20542;-68
2021/12/30 02:17:39;;;;;;;0.30;0.30;;;9.90;99.90;;;;;;2114718;28;20182;-68
2021/12/30 02:18:39;;;;;;;0.30;0.30;;;9.90;99.90;;;;;;2114185;28;20180;-68
2021/12/30 02:19:40;;;;;;;0.30;0.30;;;9.90;99.90;;;;;;2114175;28;20182;-68
2021/12/30 02:20:49;;;;;;;0.20;0.20;;;9.90;99.90;;;;;;2114581;28;20193;-69
2021/12/30 02:21:50;;;;;;;0.93;0.30;;;10.00;99.90;;;;;;2114216;28;20189;-69
2021/12/30 02:22:51;;;;;;;0.30;0.30;;;9.90;99.90;;;;;;2114224;28;20278;-68
2021/12/30 02:23:51;;;;;;;0.40;0.40;;;9.90;99.90;;;;;;2114783;28;20170;-68
2021/12/30 02:24:52;;;;;;;0.40;0.20;;;10.00;99.90;;;;;;2114725;28;20179;-68
2021/12/30 02:25:58;;;;;;;0.20;0.20;;;10.00;99.90;;;;;;2114676;28;20712;-69
2021/12/30 02:26:59;;;;;;;0.32;0.30;;;10.00;99.90;;;;;;2114179;28;20177;-68
2021/12/30 02:28:08;;;;;;;0.30;0.30;;;10.00;99.90;;;;;;2114157;28;20167;-68
2021/12/30 02:29:09;;;;;;;0.40;0.40;;;10.00;99.90;;;;;;2114261;28;20162;-69
2021/12/30 02:30:10;;;;;;;0.27;0.27;;;10.00;99.90;;;;;;2114094;28;20189;-69
2021/12/30 02:31:17;;;;;;;0.30;0.30;;;10.00;99.90;;;;;;2114685;28;20705;-69
2021/12/30 02:32:21;;;;;;;0.38;0.38;;;9.90;99.90;;;;;;2114192;28;20171;-69
2021/12/30 02:33:22;;;;;;;0.93;0.50;;;10.00;99.90;;;;;;2114014;28;20163;-68
2021/12/30 02:34:23;;;;;;;0.60;0.40;;;10.00;99.90;;;;;;2111460;28;20697;-68
2021/12/30 02:35:24;;;;;;;0.30;0.30;;;10.00;99.90;;;;;;2113948;28;20171;-69
2021/12/30 02:36:32;;;;;;;0.30;0.30;;;10.00;99.90;;;;;;2114665;28;20625;-69
2021/12/30 02:37:32;;;;;;;0.20;0.20;;;10.00;99.90;;;;;;2114660;28;20178;-69
2021/12/30 02:38:34;;;;;;;0.20;0.20;;;10.00;99.90;;;;;;2114542;28;20261;-69
2021/12/30 02:39:35;;;;;;;0.20;0.20;;;10.00;99.90;;;;;;2114092;28;20174;-69
2021/12/30 02:40:43;;;;;;;0.40;0.30;;;10.00;99.90;;;;;;2105669;28;20187;-69
2021/12/30 02:41:44;;;;;;;1.23;0.30;;;10.00;99.90;;;;;;2114251;28;20253;-68
2021/12/30 02:42:45;;;;;;;0.20;0.20;;;10.00;99.90;;;;;;2113980;28;20179;-68
2021/12/30 02:43:48;;;;;;;0.30;0.20;;;9.90;99.90;;;;;;2114055;28;20560;-69
2021/12/30 02:44:49;;;;;;;0.43;0.30;;;10.00;99.90;;;;;;2113990;28;20173;-69
2021/12/30 02:45:51;;;;;;;0.30;0.30;;;10.00;99.90;;;;;;2114650;28;20257;-70
2021/12/30 02:46:54;;;;;;;0.10;0.10;;;10.00;99.90;;;;;;2113794;28;20741;-69
2021/12/30 02:47:54;;;;;;;1.90;0.47;;;10.00;99.90;;;;;;2105208;28;20696;-69
2021/12/30 02:48:59;;;;;;;0.60;0.40;;;9.90;99.90;;;;;;2105537;28;20187;-68
2021/12/30 02:50:00;;;;;;;0.80;0.50;;;9.90;99.90;;;;;;2105470;28;20175;-69
2021/12/30 02:51:06;;;;;;;0.40;0.40;;;9.90;99.90;;;;;;2105563;28;20167;-68
2021/12/30 02:52:06;;;;;;;0.40;0.40;;;9.90;99.90;;;;;;2105602;28;20178;-69
2021/12/30 02:53:07;;;;;;;0.37;0.37;;;9.90;99.90;;;;;;2105416;28;20174;-68
2021/12/30 02:54:08;;;;;;;0.40;0.40;;;9.90;99.90;;;;;;2106212;28;20167;-69
2021/12/30 02:55:11;;;;;;;0.30;0.30;;;10.00;99.90;;;;;;2106113;28;20236;-69
2021/12/30 02:56:11;;;;;;;0.40;0.40;;;10.00;99.90;;;;;;2106170;28;20732;-69
2021/12/30 02:57:12;;;;;;;0.30;0.30;;;10.00;99.90;;;;;;2106085;28;20182;-69
2021/12/30 02:58:14;;;;;;;0.20;0.20;;;10.00;99.90;;;;;;2106125;28;20197;-69
2021/12/30 02:59:18;;;;;;;0.30;0.30;;;10.00;99.90;;;;;;2105403;28;20202;-69
2021/12/30 03:00:19;;;;;;;0.30;0.30;;;10.00;99.90;;;;;;2097633;28;20262;-68
2021/12/30 03:01:29;;;;;;;0.53;0.30;;;10.00;99.90;;;;;;2105558;28;20175;-69
2021/12/30 03:02:29;;;;;;;0.30;0.30;;;9.90;99.90;;;;;;2106155;28;20537;-69
2021/12/30 03:03:30;;;;;;;0.20;0.20;;;9.90;99.90;;;;;;2106066;28;20171;-68
2021/12/30 03:04:31;;;;;;;0.30;0.30;;;9.90;99.90;;;;;;2105977;28;20171;-69
2021/12/30 03:05:33;;;;;;;0.43;0.30;;;9.90;99.90;;;;;;2106092;28;20171;-69
2021/12/30 03:06:34;;;;;;;0.95;0.30;;;9.90;99.90;;;;;;2106098;28;20532;-68
2021/12/30 03:07:36;;;;;;;0.30;0.30;;;9.90;99.90;;;;;;2105382;28;20167;-69
2021/12/30 03:08:38;;;;;;;0.20;0.20;;;9.90;99.90;;;;;;2105480;28;20160;-69
2021/12/30 03:09:38;;;;;;;0.30;0.20;;;9.90;99.90;;;;;;2114031;28;20225;-69
2021/12/30 03:10:39;;;;;;;0.20;0.20;;;9.90;99.90;;;;;;2113977;28;20189;-69
2021/12/30 03:11:40;;;;;;;0.97;0.30;;;9.90;99.90;;;;;;2105990;28;20541;-69
2021/12/30 03:12:41;;;;;;;0.30;0.30;;;9.90;99.90;;;;;;2106077;28;20175;-69
2021/12/30 03:13:44;;;;;;;0.20;0.20;;;9.90;99.90;;;;;;2106004;28;20662;-69
2021/12/30 03:14:44;;;;;;;0.50;0.50;;;9.90;99.90;;;;;;2105827;28;20254;-69
2021/12/30 03:15:46;;;;;;;1.47;1.20;;;9.90;99.90;;;;;;2105970;28;20179;-69
2021/12/30 03:16:47;;;;;;;1.00;0.90;;;9.90;99.90;;;;;;2105957;28;20208;-70
2021/12/30 03:17:48;;;;;;;2.13;1.17;;;9.80;99.90;;;;;;2105866;28;20602;-69
2021/12/30 03:18:50;;;;;;;0.70;0.70;;;9.80;99.90;;;;;;2113200;28;20178;-68
2021/12/30 03:19:56;;;;;;;0.75;0.40;;;9.80;99.90;;;;;;2113647;28;20899;-69
2021/12/30 03:20:57;;;;;;;0.50;0.50;;;9.80;99.90;;;;;;2113158;28;20699;-69
2021/12/30 03:21:58;;;;;;;0.50;0.40;;;9.80;99.90;;;;;;2105392;28;20171;-68
2021/12/30 03:22:59;;;;;;;0.63;0.40;;;9.90;99.90;;;;;;2106013;28;20191;-70
2021/12/30 03:24:02;;;;;;;0.40;0.40;;;9.90;99.90;;;;;;2105331;28;20167;-68
2021/12/30 03:25:05;;;;;;;0.50;0.50;;;9.90;99.90;;;;;;2105159;28;20211;-70
2021/12/30 03:26:07;;;;;;;0.60;0.60;;;9.90;99.90;;;;;;2105884;28;20178;-69
2021/12/30 03:27:08;;;;;;;0.93;0.65;;;9.90;99.90;;;;;;2105919;28;20258;-68
2021/12/30 03:28:09;;;;;;;0.40;0.40;;;9.90;99.90;;;;;;2105908;28;20163;-69
2021/12/30 03:29:09;;;;;;;0.70;0.60;;;9.90;99.90;;;;;;2105415;28;20174;-69
2021/12/30 03:30:16;;;;;;;0.57;0.50;;;9.90;99.90;;;;;;2105158;28;20221;-69
2021/12/30 03:31:19;;;;;;;0.82;0.40;;;9.90;99.90;;;;;;2113115;28;20253;-69
2021/12/30 03:32:20;;;;;;;0.90;0.40;;;9.90;99.90;;;;;;2105872;28;20220;-68
2021/12/30 03:33:21;;;;;;;0.73;0.63;;;10.00;99.90;;;;;;2105995;28;20171;-69
2021/12/30 03:34:21;;;;;;;1.33;0.60;;;9.90;99.90;;;;;;2105811;28;20181;-68
2021/12/30 03:35:22;;;;;;;0.80;0.47;;;9.90;99.90;;;;;;2105780;28;20163;-68
2021/12/30 03:36:25;;;;;;;0.50;0.40;;;9.90;99.90;;;;;;2105918;28;20535;-69
2021/12/30 03:37:26;;;;;;;0.45;0.45;;;9.90;99.90;;;;;;2105848;28;20705;-68
2021/12/30 03:38:37;;;;;;;0.40;0.40;;;9.90;99.90;;;;;;2105889;28;20171;-69
2021/12/30 03:39:38;;;;;;;0.60;0.60;;;9.90;99.90;;;;;;2105359;28;20812;-68
2021/12/30 03:40:39;;;;;;;0.40;0.40;;;9.90;99.90;;;;;;2105120;28;20202;-68
2021/12/30 03:41:40;;;;;;;0.47;0.47;;;9.90;99.90;;;;;;2105913;28;20186;-68
2021/12/30 03:42:43;;;;;;;0.32;0.32;;;10.00;99.90;;;;;;2105273;28;20563;-69
2021/12/30 03:43:44;;;;;;;1.05;0.50;;;9.90;99.90;;;;;;2105308;28;20183;-69
2021/12/30 03:44:46;;;;;;;0.32;0.30;;;10.00;99.90;;;;;;2105739;28;20178;-69
2021/12/30 03:45:46;;;;;;;0.52;0.40;;;10.00;99.90;;;;;;2105301;28;20662;-69
2021/12/30 03:46:47;;;;;;;0.50;0.30;;;10.00;99.90;;;;;;2105103;28;20171;-69
2021/12/30 03:47:50;;;;;;;0.73;0.30;;;10.00;99.90;;;;;;2105900;28;20550;-69
2021/12/30 03:48:51;;;;;;;0.40;0.40;;;10.00;99.90;;;;;;2105287;28;20167;-69
2021/12/30 03:49:52;;;;;;;0.50;0.33;;;10.00;99.90;;;;;;2105303;28;20179;-69
2021/12/30 03:50:53;;;;;;;0.73;0.40;;;10.00;99.90;;;;;;2105781;28;20199;-68
2021/12/30 03:51:54;;;;;;;0.30;0.30;;;10.00;99.90;;;;;;2105874;28;20269;-68
2021/12/30 03:53:02;;;;;;;0.25;0.25;;;10.00;99.90;;;;;;2105849;28;20565;-69
2021/12/30 03:54:03;;;;;;;0.93;0.40;;;10.10;99.90;;;;;;2105877;28;20167;-69
2021/12/30 03:55:04;;;;;;;0.23;0.23;;;10.10;99.90;;;;;;2105744;28;20183;-69
2021/12/30 03:56:11;;;;;;;0.30;0.30;;;10.10;99.90;;;;;;2114935;28;20178;-69
2021/12/30 03:57:12;;;;;;;0.32;0.32;;;10.10;99.90;;;;;;2106861;28;20201;-69
2021/12/30 03:58:13;;;;;;;0.40;0.40;;;10.10;99.90;;;;;;2106994;28;20276;-68
2021/12/30 03:59:14;;;;;;;0.43;0.23;;;10.00;99.90;;;;;;2106816;28;20543;-69
2021/12/30 04:00:16;;;;;;;0.20;0.20;;;10.00;99.90;;;;;;2106814;28;20182;-69
2021/12/30 04:01:20;;;;;;;0.50;0.20;;;10.00;99.90;;;;;;2107530;28;20261;-68
2021/12/30 04:02:21;;;;;;;0.22;0.22;;;10.00;99.90;;;;;;2115183;28;20162;-69
2021/12/30 04:03:22;;;;;;;1.20;0.23;;;10.00;99.90;;;;;;2115339;28;20174;-69
2021/12/30 04:04:22;;;;;;;0.20;0.20;;;10.00;99.90;;;;;;2107471;28;20178;-69
2021/12/30 04:05:24;;;;;;;0.30;0.30;;;10.00;99.90;;;;;;2107430;28;20642;-69
2021/12/30 04:06:27;;;;;;;2.92;0.50;;;10.00;99.90;;;;;;2106779;28;20803;-70
2021/12/30 04:07:27;;;;;;;0.30;0.30;;;10.00;99.90;;;;;;2107036;28;20221;-69
2021/12/30 04:08:29;;;;;;;0.37;0.37;;;10.00;99.90;;;;;;2115140;28;20573;-69
2021/12/30 04:09:30;;;;;;;0.85;0.63;;;10.00;99.90;;;;;;2106876;28;20175;-68
2021/12/30 04:10:31;;;;;;;2.90;0.80;;;10.00;99.90;;;;;;2106754;28;20202;-69
2021/12/30 04:11:34;;;;;;;0.70;0.53;;;10.00;99.90;;;;;;2107469;28;20183;-69
2021/12/30 04:12:35;;;;;;;1.95;0.70;;;10.10;99.90;;;;;;2107405;28;20171;-69
2021/12/30 04:13:36;;;;;;;0.40;0.40;;;10.00;99.90;;;;;;2106834;28;20175;-69
2021/12/30 04:14:38;;;;;;;0.57;0.40;;;10.10;99.90;;;;;;2106645;28;20221;-69
2021/12/30 04:15:39;;;;;;;0.28;0.28;;;10.10;99.90;;;;;;2106816;28;20171;-70
2021/12/30 04:16:40;;;;;;;0.30;0.30;;;10.10;99.90;;;;;;2106708;28;20171;-68
2021/12/30 04:17:40;;;;;;;0.73;0.30;;;10.10;99.90;;;;;;2107242;28;20179;-68
2021/12/30 04:18:41;;;;;;;0.20;0.20;;;10.10;99.90;;;;;;2106564;28;20571;-69
2021/12/30 04:19:42;;;;;;;0.20;0.20;;;10.20;99.90;;;;;;2106806;28;20195;-68
2021/12/30 04:20:42;;;;;;;0.20;0.20;;;10.10;99.90;;;;;;2106646;28;20195;-68
2021/12/30 04:21:44;;;;;;;0.30;0.30;;;10.10;99.90;;;;;;2106836;28;20175;-68
2021/12/30 04:22:45;;;;;;;0.20;0.20;;;10.10;99.90;;;;;;2107328;28;20701;-69
2021/12/30 04:23:45;;;;;;;0.85;0.30;;;10.10;99.90;;;;;;2106673;28;20175;-68
2021/12/30 04:24:47;;;;;;;0.20;0.20;;;10.10;99.90;;;;;;2106588;28;20230;-69
2021/12/30 04:25:48;;;;;;;0.65;0.15;;;10.10;99.90;;;;;;2106467;28;20225;-68
2021/12/30 04:26:50;;;;;;;0.30;0.30;;;10.20;99.90;;;;;;2106602;28;20223;-69
2021/12/30 04:27:51;;;;;;;1.65;0.20;;;10.20;99.90;;;;;;2115145;28;20173;-69
2021/12/30 04:28:52;;;;;;;0.30;0.30;;;10.20;99.90;;;;;;2115585;28;20197;-68
2021/12/30 04:29:53;;;;;;;1.55;0.20;;;10.20;99.90;;;;;;2115159;28;20236;-69
2021/12/30 04:30:54;;;;;;;0.20;0.20;;;10.20;99.90;;;;;;2115023;28;20668;-67
2021/12/30 04:31:56;;;;;;;0.30;0.30;;;10.20;99.90;;;;;;2115740;28;20639;-67
2021/12/30 04:32:58;;;;;;;0.15;0.15;;;10.20;99.90;;;;;;2115641;28;20201;-69
2021/12/30 04:33:59;;;;;;;0.20;0.20;;;10.20;99.90;;;;;;2115674;28;20170;-68
2021/12/30 04:35:00;;;;;;;0.30;0.30;;;10.20;99.90;;;;;;2115447;28;20166;-68
2021/12/30 04:36:00;;;;;;;0.30;0.30;;;10.20;99.90;;;;;;2115136;28;20158;-68
2021/12/30 04:37:01;;;;;;;0.30;0.30;;;10.20;99.90;;;;;;2106539;28;20171;-69
2021/12/30 04:38:02;;;;;;;0.30;0.30;;;10.20;99.90;;;;;;2115191;28;20175;-68
2021/12/30 04:39:04;;;;;;;0.30;0.30;;;10.20;99.90;;;;;;2115544;28;20668;-68
2021/12/30 04:40:07;;;;;;;0.28;0.28;;;10.20;99.90;;;;;;2115558;28;20211;-68
2021/12/30 04:41:07;;;;;;;0.30;0.30;;;10.20;99.90;;;;;;2114948;28;20178;-68
2021/12/30 04:42:08;;;;;;;0.20;0.20;;;10.20;99.90;;;;;;2115104;28;20692;-68
2021/12/30 04:43:10;;;;;;;0.20;0.20;;;10.20;99.90;;;;;;2115559;28;20257;-69
2021/12/30 04:44:11;;;;;;;0.20;0.20;;;10.20;99.90;;;;;;2115038;28;20242;-68
2021/12/30 04:45:13;;;;;;;0.20;0.20;;;10.20;99.90;;;;;;2114723;28;20691;-68
2021/12/30 04:46:14;;;;;;;1.30;0.22;;;10.20;99.90;;;;;;2106219;28;20262;-68
2021/12/30 04:47:16;;;;;;;0.33;0.30;;;10.20;99.90;;;;;;2106403;28;20689;-68
2021/12/30 04:48:17;;;;;;;0.40;0.32;;;10.20;99.90;;;;;;2115010;28;20205;-68
2021/12/30 04:49:18;;;;;;;0.60;0.60;;;10.20;99.90;;;;;;2114959;28;20239;-68
2021/12/30 04:50:19;;;;;;;0.37;0.37;;;10.20;99.90;;;;;;2114844;28;20167;-68
2021/12/30 04:51:19;;;;;;;0.70;0.60;;;10.20;99.90;;;;;;2114962;28;20182;-68
2021/12/30 04:52:20;;;;;;;0.60;0.60;;;10.20;99.90;;;;;;2115571;28;20647;-68
2021/12/30 04:53:21;;;;;;;1.20;1.03;;;10.20;99.90;;;;;;2115583;28;20629;-68
2021/12/30 04:54:22;;;;;;;0.70;0.60;;;10.20;99.90;;;;;;2115495;28;20194;-69
2021/12/30 04:55:22;;;;;;;0.83;0.50;;;10.20;99.90;;;;;;2115404;28;20408;-68
2021/12/30 04:56:23;;;;;;;2.33;0.40;;;10.20;99.90;;;;;;2115400;28;20185;-68
2021/12/30 04:57:24;;;;;;;0.77;0.77;;;10.30;99.90;;;;;;2115443;28;20159;-69
2021/12/30 04:58:25;;;;;;;0.60;0.30;;;10.30;99.90;;;;;;2115394;28;20166;-68
2021/12/30 04:59:26;;;;;;;0.20;0.20;;;10.20;99.90;;;;;;2115417;28;20226;-69
2021/12/30 05:00:26;;;;;;;1.43;0.20;;;10.30;99.90;;;;;;2115372;28;20806;-68
2021/12/30 05:01:27;;;;;;;2.00;0.30;;;10.30;99.90;;;;;;2115402;28;20238;-68
2021/12/30 05:02:38;;;;;;;0.13;0.13;;;10.30;99.90;;;;;;2114697;28;20166;-69
2021/12/30 05:03:39;;;;;;;0.20;0.20;;;10.30;99.90;;;;;;2115021;28;20186;-68
2021/12/30 05:04:40;;;;;;;0.20;0.20;;;10.30;99.90;;;;;;2115247;28;20653;-69
2021/12/30 05:05:49;;;;;;;0.17;0.10;;;10.30;99.90;;;;;;2115465;28;20177;-69
2021/12/30 05:06:50;;;;;;;0.10;0.10;;;10.30;99.90;;;;;;2114818;28;20208;-68
2021/12/30 05:07:51;;;;;;;0.30;0.30;;;10.30;99.90;;;;;;2114278;28;20214;-68
2021/12/30 05:08:52;;;;;;;1.37;0.70;;;10.30;99.90;;;;;;2115418;28;20246;-68
2021/12/30 05:09:52;;;;;;;1.03;0.60;;;10.30;99.90;;;;;;2115526;28;20170;-68
2021/12/30 05:10:53;;;;;;;0.73;0.40;;;10.30;99.90;;;;;;2115260;28;20213;-68
2021/12/30 05:11:54;;;;;;;0.20;0.20;;;10.30;99.90;;;;;;2114812;28;20175;-68
2021/12/30 05:12:55;;;;;;;0.00;0.00;;;10.40;99.90;;;;;;2114906;28;20261;-68
2021/12/30 05:13:56;;;;;;;0.20;0.20;;;10.30;99.90;;;;;;2115454;28;20179;-68
2021/12/30 05:14:56;;;;;;;1.13;0.20;;;10.40;99.90;;;;;;2115216;28;20174;-69
2021/12/30 05:15:58;;;;;;;0.27;0.27;;;10.40;99.90;;;;;;2115530;28;20571;-68
2021/12/30 05:17:03;;;;;;;0.20;0.20;;;10.40;99.90;;;;;;2116632;28;20642;-68
2021/12/30 05:18:06;;;;;;;0.13;0.13;;;10.40;99.90;;;;;;2115376;28;20187;-68
2021/12/30 05:19:07;;;;;;;0.13;0.13;;;10.40;99.90;;;;;;2115278;28;20676;-69
2021/12/30 05:20:09;;;;;;;0.32;0.20;;;10.40;99.90;;;;;;2115367;28;20173;-68
2021/12/30 05:21:10;;;;;;;0.17;0.17;;;10.40;99.90;;;;;;2115364;28;20228;-69
2021/12/30 05:22:11;;;;;;;0.10;0.10;;;10.40;99.90;;;;;;2115481;28;20166;-67
2021/12/30 05:23:12;;;;;;;0.20;0.20;;;10.40;99.90;;;;;;2114709;28;20596;-69
2021/12/30 05:24:12;;;;;;;0.47;0.20;;;10.30;99.90;;;;;;2115218;28;20615;-69
2021/12/30 05:25:15;;;;;;;0.40;0.40;;;10.30;99.90;;;;;;2115572;28;20166;-68